Time;durP1;ratioP1;P1;durP2;ratioP2;P2;SDS_P1;SDS_P2;PMS_P1;PMS_P2;Temp;Humidity;BMP_temperature;BMP_pressure;BME280_temperature;BME280_humidity;BME280_pressure;Samples;Min_cycle;Max_cycle;Signal;HPM_P1;HPM_P2
2022/05/29 00:01:35;;;;;;;7.10;2.63;;;;;;;;;;5038747;28;20662;-67
2022/05/29 00:04:01;;;;;;;4.23;1.80;;;;;;;;;;5038759;28;20281;-65
2022/05/29 00:06:27;;;;;;;3.17;1.57;;;;;;;;;;5038682;28;20178;-68
2022/05/29 00:08:53;;;;;;;5.37;2.07;;;;;;;;;;5038405;28;20221;-67
2022/05/29 00:11:19;;;;;;;6.63;2.33;;;;;;;;;;5056446;28;20422;-66
2022/05/29 00:13:45;;;;;;;5.90;1.90;;;;;;;;;;5056485;28;20177;-67
2022/05/29 00:16:11;;;;;;;3.07;2.00;;;;;;;;;;5037750;28;20185;-66
2022/05/29 00:18:38;;;;;;;3.43;1.80;;;;;;;;;;5056149;28;20205;-67
2022/05/29 00:21:05;;;;;;;5.30;2.00;;;;;;;;;;5056199;28;20634;-65
2022/05/29 00:23:31;;;;;;;2.13;1.73;;;;;;;;;;5056231;28;20221;-64
2022/05/29 00:25:57;;;;;;;2.20;1.90;;;;;;;;;;5056603;28;20225;-65
2022/05/29 00:28:23;;;;;;;3.67;2.20;;;;;;;;;;5055913;28;20202;-64
2022/05/29 00:30:50;;;;;;;4.07;2.07;;;;;;;;;;5056410;28;20205;-65
2022/05/29 00:33:16;;;;;;;2.53;1.70;;;;;;;;;;5056105;28;20174;-65
2022/05/29 00:35:42;;;;;;;3.57;2.10;;;;;;;;;;5056343;28;20225;-65
2022/05/29 00:38:09;;;;;;;2.40;1.70;;;;;;;;;;5038259;28;20182;-64
2022/05/29 00:40:48;;;;;;;2.90;2.00;;;;;;;;;;5038103;28;20179;-65
2022/05/29 00:43:14;;;;;;;4.33;1.93;;;;;;;;;;5037943;28;20193;-64
2022/05/29 00:45:54;;;;;;;3.77;2.20;;;;;;;;;;5056139;28;20183;-65
2022/05/29 00:48:21;;;;;;;5.17;2.10;;;;;;;;;;5037589;28;20226;-66
2022/05/29 00:50:48;;;;;;;5.53;2.07;;;;;;;;;;5037825;28;20198;-64
2022/05/29 00:53:14;;;;;;;4.77;2.30;;;;;;;;;;5055985;28;20182;-65
2022/05/29 00:55:42;;;;;;;5.93;2.23;;;;;;;;;;5056060;28;20198;-64
2022/05/29 00:58:08;;;;;;;4.10;2.50;;;;;;;;;;5037560;28;20228;-64
2022/05/29 01:00:34;;;;;;;5.43;2.77;;;;;;;;;;5055674;28;20190;-64
2022/05/29 01:03:02;;;;;;;2.87;2.37;;;;;;;;;;5037452;28;20365;-64
2022/05/29 01:05:29;;;;;;;2.47;1.93;;;;;;;;;;5055441;28;20182;-65
2022/05/29 01:08:00;;;;;;;4.27;2.40;;;;;;;;;;5055289;28;20241;-66
2022/05/29 01:10:53;;;;;;;4.00;2.47;;;;;;;;;;5055323;28;20206;-65
2022/05/29 01:13:33;;;;;;;5.90;2.30;;;;;;;;;;5032198;28;20273;-64
2022/05/29 01:16:04;;;;;;;4.77;2.50;;;;;;;;;;5037977;28;20198;-64
2022/05/29 01:18:33;;;;;;;5.17;2.50;;;;;;;;;;5037042;28;20202;-64
2022/05/29 01:21:08;;;;;;;5.23;2.40;;;;;;;;;;5055345;28;20186;-65
2022/05/29 01:23:34;;;;;;;3.00;2.30;;;;;;;;;;5037200;28;20174;-64
2022/05/29 01:26:09;;;;;;;5.23;3.00;;;;;;;;;;5055166;28;20273;-65
2022/05/29 01:28:54;;;;;;;2.60;2.30;;;;;;;;;;5036742;28;20198;-67
2022/05/29 01:31:39;;;;;;;3.67;2.70;;;;;;;;;;5054921;28;20232;-66
2022/05/29 01:34:08;;;;;;;5.23;2.83;;;;;;;;;;5054769;28;20268;-65
2022/05/29 01:36:50;;;;;;;4.20;2.90;;;;;;;;;;5054831;28;20261;-66
2022/05/29 01:39:34;;;;;;;5.07;3.33;;;;;;;;;;5037310;28;20670;-65
2022/05/29 01:42:05;;;;;;;6.83;3.00;;;;;;;;;;5054627;28;20183;-65
2022/05/29 01:45:09;;;;;;;5.47;3.43;;;;;;;;;;5036589;28;20602;-66
2022/05/29 01:47:46;;;;;;;9.47;3.40;;;;;;;;;;4993426;28;20270;-65
2022/05/29 01:50:17;;;;;;;5.47;3.07;;;;;;;;;;4992993;28;20228;-66
2022/05/29 01:52:49;;;;;;;6.10;2.83;;;;;;;;;;5011587;28;20240;-66
2022/05/29 01:55:25;;;;;;;3.50;2.80;;;;;;;;;;5036654;28;20189;-66
2022/05/29 01:57:51;;;;;;;3.60;3.10;;;;;;;;;;5036509;28;20262;-65
2022/05/29 02:00:22;;;;;;;3.47;2.60;;;;;;;;;;5036321;28;20212;-69
2022/05/29 02:03:03;;;;;;;4.80;2.60;;;;;;;;;;5036283;28;20190;-66
2022/05/29 02:05:32;;;;;;;3.23;2.50;;;;;;;;;;5054075;28;20605;-65
2022/05/29 02:08:09;;;;;;;2.97;2.27;;;;;;;;;;5053904;28;20182;-64
2022/05/29 02:10:46;;;;;;;3.37;2.53;;;;;;;;;;5054262;28;20569;-66
2022/05/29 02:13:12;;;;;;;5.90;2.47;;;;;;;;;;5054429;28;20159;-65
2022/05/29 02:15:46;;;;;;;2.47;2.17;;;;;;;;;;5053835;28;20300;-66
2022/05/29 02:18:23;;;;;;;2.87;2.53;;;;;;;;;;5053941;28;20174;-65
2022/05/29 02:20:53;;;;;;;5.17;2.47;;;;;;;;;;5054262;28;20245;-65
2022/05/29 02:23:21;;;;;;;4.43;2.33;;;;;;;;;;5053906;28;20181;-65
2022/05/29 02:25:48;;;;;;;5.00;2.40;;;;;;;;;;5053941;28;20261;-65
2022/05/29 02:28:21;;;;;;;5.83;2.17;;;;;;;;;;5035746;28;20189;-65
2022/05/29 02:30:58;;;;;;;4.77;2.33;;;;;;;;;;5053937;28;20623;-65
2022/05/29 02:33:26;;;;;;;2.63;2.23;;;;;;;;;;5053945;28;20257;-65
2022/05/29 02:36:19;;;;;;;4.00;2.63;;;;;;;;;;5035899;28;20182;-66
2022/05/29 02:38:49;;;;;;;4.93;2.47;;;;;;;;;;5052889;28;20206;-64
2022/05/29 02:41:23;;;;;;;7.33;2.77;;;;;;;;;;5053604;28;20174;-65
2022/05/29 02:44:05;;;;;;;4.57;2.43;;;;;;;;;;5035757;28;20185;-66
2022/05/29 02:46:35;;;;;;;3.73;2.80;;;;;;;;;;5053529;28;20178;-65
2022/05/29 02:49:16;;;;;;;5.70;2.90;;;;;;;;;;5035885;28;20218;-64
2022/05/29 02:51:46;;;;;;;4.80;2.97;;;;;;;;;;5053466;28;20543;-66
2022/05/29 02:54:13;;;;;;;7.87;3.30;;;;;;;;;;5053794;28;20182;-65
2022/05/29 02:56:40;;;;;;;3.73;3.00;;;;;;;;;;5035477;28;20182;-66
2022/05/29 02:59:06;;;;;;;4.70;3.03;;;;;;;;;;5053269;28;20311;-65
2022/05/29 03:01:32;;;;;;;6.00;3.40;;;;;;;;;;5053126;28;20206;-65
2022/05/29 03:03:58;;;;;;;5.93;3.50;;;;;;;;;;5035140;28;20183;-65
2022/05/29 03:06:37;;;;;;;3.33;2.67;;;;;;;;;;5053374;28;20261;-65
2022/05/29 03:09:21;;;;;;;4.17;3.03;;;;;;;;;;5053131;28;20274;-65
2022/05/29 03:11:47;;;;;;;5.03;2.83;;;;;;;;;;5053355;28;20180;-65
2022/05/29 03:14:28;;;;;;;5.50;3.00;;;;;;;;;;5053189;28;20182;-65
2022/05/29 03:17:06;;;;;;;5.73;3.00;;;;;;;;;;5035206;28;20194;-65
2022/05/29 03:20:02;;;;;;;7.60;3.13;;;;;;;;;;5035149;28;20240;-65
2022/05/29 03:22:47;;;;;;;4.30;3.30;;;;;;;;;;5040681;28;20220;-64
2022/05/29 03:25:19;;;;;;;8.87;3.33;;;;;;;;;;5052833;28;20179;-64
2022/05/29 03:27:46;;;;;;;6.77;3.70;;;;;;;;;;5052940;28;20175;-65
2022/05/29 03:30:20;;;;;;;6.07;3.33;;;;;;;;;;5052980;28;20206;-64
2022/05/29 03:32:47;;;;;;;4.87;3.57;;;;;;;;;;5035126;28;20262;-65
2022/05/29 03:35:22;;;;;;;7.47;4.00;;;;;;;;;;5052748;28;20170;-65
2022/05/29 03:37:48;;;;;;;5.77;3.10;;;;;;;;;;5052828;28;20170;-66
2022/05/29 03:40:14;;;;;;;7.37;3.80;;;;;;;;;;5053115;28;20217;-65
2022/05/29 03:42:40;;;;;;;4.03;2.67;;;;;;;;;;5053358;28;20187;-65
2022/05/29 03:45:07;;;;;;;8.70;3.60;;;;;;;;;;5052845;28;20183;-65
2022/05/29 03:47:33;;;;;;;5.20;3.33;;;;;;;;;;5052758;28;20179;-65
2022/05/29 03:49:59;;;;;;;9.10;3.73;;;;;;;;;;5034716;28;20275;-65
2022/05/29 03:52:25;;;;;;;5.40;3.03;;;;;;;;;;5038306;28;20639;-66
2022/05/29 03:54:54;;;;;;;7.87;3.17;;;;;;;;;;5056491;28;20181;-66
2022/05/29 03:57:20;;;;;;;8.37;3.60;;;;;;;;;;5098043;22;20237;-65
2022/05/29 03:59:46;;;;;;;5.80;3.37;;;;;;;;;;5058711;28;20178;-65
2022/05/29 04:02:12;;;;;;;5.33;3.20;;;;;;;;;;5076488;28;20600;-65
2022/05/29 04:04:38;;;;;;;5.47;3.50;;;;;;;;;;5076420;28;20231;-65
2022/05/29 04:07:04;;;;;;;7.90;3.40;;;;;;;;;;5058305;28;20205;-63
2022/05/29 04:12:15;;;;;;;4.67;3.03;;;;;;;;;;5076630;28;20189;-64
2022/05/29 04:14:43;;;;;;;4.23;2.83;;;;;;;;;;5076241;28;20185;-67
2022/05/29 04:17:09;;;;;;;4.27;3.00;;;;;;;;;;5075989;28;20197;-66
2022/05/29 04:19:35;;;;;;;5.57;3.00;;;;;;;;;;5076545;28;20182;-66
2022/05/29 04:22:06;;;;;;;6.93;3.23;;;;;;;;;;5076147;28;20240;-64
2022/05/29 04:24:32;;;;;;;4.87;2.63;;;;;;;;;;5076641;28;20163;-66
2022/05/29 04:26:58;;;;;;;4.83;3.10;;;;;;;;;;5076240;28;20204;-67
2022/05/29 04:29:23;;;;;;;4.27;3.00;;;;;;;;;;5076472;28;20299;-66
2022/05/29 04:34:36;;;;;;;4.70;3.27;;;;;;;;;;5076138;28;20604;-65
2022/05/29 04:37:02;;;;;;;6.10;3.17;;;;;;;;;;5075752;28;20221;-67
2022/05/29 04:39:28;;;;;;;4.10;3.07;;;;;;;;;;5075735;28;20177;-66
2022/05/29 04:41:54;;;;;;;6.80;3.37;;;;;;;;;;5075786;28;20265;-67
2022/05/29 04:44:20;;;;;;;6.63;3.53;;;;;;;;;;5057733;28;20277;-67
2022/05/29 04:46:46;;;;;;;4.20;3.03;;;;;;;;;;5075605;28;20202;-67
2022/05/29 04:49:12;;;;;;;4.20;3.10;;;;;;;;;;5075706;28;20560;-66
2022/05/29 04:51:37;;;;;;;5.40;3.13;;;;;;;;;;5057527;28;20178;-67
2022/05/29 04:54:04;;;;;;;4.23;3.03;;;;;;;;;;5075445;28;20186;-67
2022/05/29 04:56:29;;;;;;;7.13;2.60;;;;;;;;;;5057356;28;20212;-67
2022/05/29 04:58:55;;;;;;;3.90;2.63;;;;;;;;;;5075445;28;20185;-67
2022/05/29 05:01:21;;;;;;;7.93;3.53;;;;;;;;;;5057024;28;20173;-66
2022/05/29 05:03:47;;;;;;;6.40;2.90;;;;;;;;;;5075537;28;20178;-66
2022/05/29 05:06:13;;;;;;;6.23;3.00;;;;;;;;;;5057278;28;20208;-67
2022/05/29 05:08:39;;;;;;;4.67;3.27;;;;;;;;;;5075323;28;20177;-68
2022/05/29 05:11:06;;;;;;;3.83;2.83;;;;;;;;;;5057247;28;20247;-68
2022/05/29 05:13:32;;;;;;;5.53;3.00;;;;;;;;;;5075489;28;20189;-65
2022/05/29 05:16:05;;;;;;;3.63;2.43;;;;;;;;;;5075199;28;20194;-66
2022/05/29 05:18:31;;;;;;;4.63;3.17;;;;;;;;;;5075191;28;20181;-66
2022/05/29 05:20:57;;;;;;;3.87;2.90;;;;;;;;;;5057304;28;20177;-67
2022/05/29 05:23:23;;;;;;;4.53;3.30;;;;;;;;;;5057945;28;20186;-66
2022/05/29 05:25:49;;;;;;;4.97;3.00;;;;;;;;;;5074838;28;20193;-66
2022/05/29 05:28:15;;;;;;;7.03;3.00;;;;;;;;;;5074946;28;20180;-66
2022/05/29 05:30:41;;;;;;;4.80;3.17;;;;;;;;;;5075246;28;20241;-65
2022/05/29 05:33:07;;;;;;;7.07;3.30;;;;;;;;;;5056954;28;20173;-66
2022/05/29 05:35:33;;;;;;;7.67;3.70;;;;;;;;;;5056702;28;20186;-66
2022/05/29 05:37:59;;;;;;;9.40;3.90;;;;;;;;;;5075223;28;20197;-66
2022/05/29 05:40:25;;;;;;;5.97;3.30;;;;;;;;;;5074587;28;20189;-67
2022/05/29 05:42:51;;;;;;;7.17;3.20;;;;;;;;;;5074860;28;20191;-66
2022/05/29 05:45:17;;;;;;;4.87;3.60;;;;;;;;;;5056866;28;20217;-66
2022/05/29 05:47:43;;;;;;;9.27;3.90;;;;;;;;;;5074699;28;20193;-66
2022/05/29 05:50:10;;;;;;;7.93;3.67;;;;;;;;;;5056911;28;20727;-66
2022/05/29 05:52:36;;;;;;;5.60;3.90;;;;;;;;;;5074888;28;20200;-65
2022/05/29 05:55:06;;;;;;;6.27;3.63;;;;;;;;;;5074759;28;20176;-66
2022/05/29 05:57:32;;;;;;;5.40;3.70;;;;;;;;;;5074386;28;20217;-66
2022/05/29 05:59:59;;;;;;;4.40;3.53;;;;;;;;;;5075119;28;20567;-66
2022/05/29 06:02:25;;;;;;;6.93;4.00;;;;;;;;;;5074928;28;20174;-66
2022/05/29 06:04:51;;;;;;;5.33;3.83;;;;;;;;;;5056567;28;20556;-66
2022/05/29 06:07:17;;;;;;;5.97;3.57;;;;;;;;;;5074841;28;20201;-66
2022/05/29 06:09:43;;;;;;;6.13;3.67;;;;;;;;;;5074720;28;20251;-66
2022/05/29 06:12:09;;;;;;;8.27;3.53;;;;;;;;;;5074510;28;20182;-66
2022/05/29 06:14:35;;;;;;;6.97;3.53;;;;;;;;;;5073742;28;20197;-66
2022/05/29 06:17:02;;;;;;;6.90;4.23;;;;;;;;;;5074154;28;20269;-66
2022/05/29 06:19:28;;;;;;;6.47;4.07;;;;;;;;;;5074877;28;20192;-66
2022/05/29 06:21:54;;;;;;;6.33;3.63;;;;;;;;;;5076474;28;20182;-67
2022/05/29 06:24:20;;;;;;;6.97;3.77;;;;;;;;;;5076333;28;20669;-68
2022/05/29 06:26:46;;;;;;;8.83;3.57;;;;;;;;;;5074808;28;20330;-66
2022/05/29 06:29:12;;;;;;;4.73;3.50;;;;;;;;;;5056915;28;20224;-66
2022/05/29 06:31:38;;;;;;;6.37;4.07;;;;;;;;;;5075420;28;20537;-66
2022/05/29 06:34:04;;;;;;;6.27;3.90;;;;;;;;;;5074650;28;20185;-64
2022/05/29 06:36:30;;;;;;;4.03;3.23;;;;;;;;;;5074533;28;20204;-66
2022/05/29 06:38:58;;;;;;;6.87;3.60;;;;;;;;;;5056353;28;20242;-66
2022/05/29 06:41:25;;;;;;;5.53;3.40;;;;;;;;;;5056289;28;20616;-66
2022/05/29 06:43:52;;;;;;;4.33;3.53;;;;;;;;;;5074794;28;20585;-67
2022/05/29 06:46:19;;;;;;;5.40;3.40;;;;;;;;;;5074392;28;20688;-67
2022/05/29 06:48:45;;;;;;;7.10;3.70;;;;;;;;;;5055780;28;20601;-66
2022/05/29 06:51:14;;;;;;;8.27;4.17;;;;;;;;;;5074631;28;20170;-66
2022/05/29 06:53:40;;;;;;;9.53;4.00;;;;;;;;;;5074209;28;20170;-65
2022/05/29 06:56:07;;;;;;;6.93;3.87;;;;;;;;;;5056038;28;20217;-67
2022/05/29 06:58:33;;;;;;;4.67;3.87;;;;;;;;;;5074472;28;20158;-66
2022/05/29 07:09:20;;;;;;;6.60;3.83;;;;;;;;;;5074076;28;20258;-63
2022/05/29 07:11:47;;;;;;;5.53;3.97;;;;;;;;;;5074003;28;20174;-62
2022/05/29 07:14:15;;;;;;;6.67;3.63;;;;;;;;;;5074434;28;20626;-62
2022/05/29 07:16:42;;;;;;;4.17;3.10;;;;;;;;;;5055738;28;20636;-62
2022/05/29 07:19:08;;;;;;;5.30;3.50;;;;;;;;;;5055673;28;20563;-62
2022/05/29 07:21:39;;;;;;;7.50;3.73;;;;;;;;;;5056232;28;20185;-62
2022/05/29 07:24:05;;;;;;;4.03;3.43;;;;;;;;;;5075849;28;20247;-63
2022/05/29 07:26:31;;;;;;;6.30;3.93;;;;;;;;;;5078152;28;20281;-62
2022/05/29 07:28:57;;;;;;;7.10;3.07;;;;;;;;;;5059898;28;20200;-62
2022/05/29 07:31:23;;;;;;;6.17;3.47;;;;;;;;;;5077549;28;20233;-62
2022/05/29 07:33:49;;;;;;;4.17;3.03;;;;;;;;;;5078080;28;20646;-65
2022/05/29 07:36:17;;;;;;;4.53;3.40;;;;;;;;;;5059577;28;20194;-61
2022/05/29 07:38:43;;;;;;;8.27;3.13;;;;;;;;;;5059427;28;20178;-61
2022/05/29 07:43:54;;;;;;;5.10;2.80;;;;;;;;;;5077622;28;20195;-62
2022/05/29 07:46:21;;;;;;;4.47;2.80;;;;;;;;;;5077548;28;20251;-60
2022/05/29 07:48:47;;;;;;;7.67;3.50;;;;;;;;;;5077775;28;20178;-61
2022/05/29 07:51:13;;;;;;;2.73;2.40;;;;;;;;;;5076944;28;20177;-62
2022/05/29 07:53:39;;;;;;;3.13;2.20;;;;;;;;;;5076987;28;20181;-62
2022/05/29 07:56:06;;;;;;;4.40;2.80;;;;;;;;;;5058642;28;20205;-61
2022/05/29 07:58:33;;;;;;;5.07;2.93;;;;;;;;;;5077126;28;20166;-62
2022/05/29 08:00:59;;;;;;;5.50;2.93;;;;;;;;;;5059695;28;20213;-61
2022/05/29 08:03:25;;;;;;;3.33;2.50;;;;;;;;;;5058628;28;20182;-62
2022/05/29 08:05:51;;;;;;;3.50;2.13;;;;;;;;;;5076616;28;20544;-61
2022/05/29 08:08:18;;;;;;;4.90;3.40;;;;;;;;;;5076570;28;20217;-59
2022/05/29 08:10:44;;;;;;;4.27;2.70;;;;;;;;;;5076459;28;20205;-61
2022/05/29 08:13:10;;;;;;;4.77;2.63;;;;;;;;;;5076781;28;20257;-61
2022/05/29 08:15:36;;;;;;;5.83;2.60;;;;;;;;;;5076405;28;20206;-61
2022/05/29 08:18:03;;;;;;;6.57;2.57;;;;;;;;;;5076472;28;20181;-61
2022/05/29 08:20:29;;;;;;;6.50;2.30;;;;;;;;;;5076629;28;20525;-62
2022/05/29 08:22:55;;;;;;;4.37;2.33;;;;;;;;;;5076444;28;20178;-62
2022/05/29 08:30:53;;;;;;;6.10;2.27;;;;;;;;;;5076255;28;20557;-62
2022/05/29 08:33:24;;;;;;;3.27;2.73;;;;;;;;;;5075902;28;20170;-61
2022/05/29 08:35:52;;;;;;;8.63;4.67;;;;;;;;;;5058266;28;20201;-62
2022/05/29 08:38:18;;;;;;;7.93;4.03;;;;;;;;;;5075194;28;20174;-62
2022/05/29 08:40:50;;;;;;;6.13;3.70;;;;;;;;;;5057591;28;20193;-60
2022/05/29 08:43:24;;;;;;;5.03;2.07;;;;;;;;;;5076145;28;20796;-60
2022/05/29 08:45:50;;;;;;;3.77;2.43;;;;;;;;;;5075781;28;20689;-59
2022/05/29 08:48:19;;;;;;;3.57;2.07;;;;;;;;;;5057554;28;20272;-61
2022/05/29 08:50:50;;;;;;;4.67;2.60;;;;;;;;;;5075694;28;20198;-60
2022/05/29 08:53:26;;;;;;;4.43;2.10;;;;;;;;;;5057692;28;20176;-61
2022/05/29 08:55:56;;;;;;;3.60;1.90;;;;;;;;;;5057297;28;20248;-60
2022/05/29 08:58:39;;;;;;;2.23;1.73;;;;;;;;;;5075766;28;20499;-59
2022/05/29 09:01:23;;;;;;;6.43;2.67;;;;;;;;;;5075375;28;20626;-61
2022/05/29 09:03:54;;;;;;;3.33;2.27;;;;;;;;;;5075543;28;20260;-61
2022/05/29 09:06:32;;;;;;;3.63;2.50;;;;;;;;;;5075251;28;20198;-63
2022/05/29 09:09:24;;;;;;;3.07;1.47;;;;;;;;;;5075530;28;20182;-60
2022/05/29 09:11:52;;;;;;;4.23;1.90;;;;;;;;;;5070572;28;20190;-62
2022/05/29 09:14:30;;;;;;;2.23;1.50;;;;;;;;;;5075104;28;20541;-61
2022/05/29 09:17:21;;;;;;;1.93;1.40;;;;;;;;;;5075410;28;20272;-61
2022/05/29 09:19:48;;;;;;;3.80;1.47;;;;;;;;;;5075625;28;20527;-62
2022/05/29 09:22:16;;;;;;;1.97;1.40;;;;;;;;;;5056983;28;20304;-62
2022/05/29 09:25:02;;;;;;;3.07;1.67;;;;;;;;;;5075110;28;20185;-62
2022/05/29 09:27:28;;;;;;;3.53;2.00;;;;;;;;;;5074973;28;20284;-62
2022/05/29 09:29:54;;;;;;;5.73;1.90;;;;;;;;;;5074757;28;20205;-62
2022/05/29 09:32:21;;;;;;;3.90;1.87;;;;;;;;;;5074551;28;20185;-62
2022/05/29 09:34:57;;;;;;;1.50;1.40;;;;;;;;;;5075024;28;20177;-62
2022/05/29 09:37:42;;;;;;;3.10;1.83;;;;;;;;;;5075009;28;20188;-62
2022/05/29 09:40:15;;;;;;;4.10;1.87;;;;;;;;;;5074893;28;20231;-63
2022/05/29 09:42:43;;;;;;;2.07;1.60;;;;;;;;;;5075100;28;20177;-61
2022/05/29 09:45:22;;;;;;;3.00;1.50;;;;;;;;;;5074551;28;20174;-61
2022/05/29 09:50:51;;;;;;;2.70;1.80;;;;;;;;;;5074133;28;20317;-63
2022/05/29 09:53:25;;;;;;;4.67;1.90;;;;;;;;;;5056399;28;20166;-62
2022/05/29 09:55:53;;;;;;;3.83;1.97;;;;;;;;;;5074042;28;20237;-62
2022/05/29 09:58:24;;;;;;;3.30;1.57;;;;;;;;;;5074562;28;20190;-63
2022/05/29 10:01:04;;;;;;;1.67;1.57;;;;;;;;;;5074767;28;20177;-63
2022/05/29 10:03:45;;;;;;;3.13;1.60;;;;;;;;;;5056545;28;20276;-62
2022/05/29 10:06:12;;;;;;;2.40;1.60;;;;;;;;;;5056502;28;20202;-64
2022/05/29 10:08:39;;;;;;;3.27;1.67;;;;;;;;;;5074096;28;20554;-62
2022/05/29 10:11:24;;;;;;;2.40;2.20;;;;;;;;;;5074244;28;20205;-65
2022/05/29 10:13:51;;;;;;;2.23;1.57;;;;;;;;;;5055961;28;20646;-61
2022/05/29 10:16:38;;;;;;;3.30;1.77;;;;;;;;;;5056397;28;20682;-62
2022/05/29 10:19:04;;;;;;;2.43;2.13;;;;;;;;;;5073785;28;20585;-60
2022/05/29 10:21:32;;;;;;;3.27;1.90;;;;;;;;;;5074057;28;20291;-59
2022/05/29 10:24:10;;;;;;;2.13;1.90;;;;;;;;;;5055942;28;20660;-62
2022/05/29 10:26:36;;;;;;;2.27;2.00;;;;;;;;;;5073639;28;20245;-61
2022/05/29 10:29:11;;;;;;;4.27;1.77;;;;;;;;;;5073570;28;20197;-62
2022/05/29 10:31:39;;;;;;;4.03;1.50;;;;;;;;;;5073843;28;20166;-62
2022/05/29 10:34:08;;;;;;;1.67;1.53;;;;;;;;;;5073913;28;20174;-62
2022/05/29 10:36:35;;;;;;;4.33;1.93;;;;;;;;;;5055530;28;20206;-61
2022/05/29 10:39:10;;;;;;;2.57;1.50;;;;;;;;;;5073511;28;20182;-62
2022/05/29 10:41:37;;;;;;;2.03;1.50;;;;;;;;;;5073761;28;20174;-64
2022/05/29 10:44:03;;;;;;;6.03;1.40;;;;;;;;;;5055578;28;20178;-62
2022/05/29 10:46:59;;;;;;;2.07;1.50;;;;;;;;;;5073863;28;20197;-62
2022/05/29 10:49:30;;;;;;;2.20;1.50;;;;;;;;;;4985331;28;20221;-62
2022/05/29 10:52:11;;;;;;;2.57;1.67;;;;;;;;;;5073857;28;20166;-62
2022/05/29 10:54:58;;;;;;;1.40;1.30;;;;;;;;;;5055393;28;20205;-61
2022/05/29 10:57:43;;;;;;;3.53;1.40;;;;;;;;;;5073158;28;20208;-62
2022/05/29 11:00:27;;;;;;;1.63;1.53;;;;;;;;;;5054992;28;20192;-62
2022/05/29 11:03:18;;;;;;;4.40;1.40;;;;;;;;;;5073231;28;20574;-62
2022/05/29 11:05:47;;;;;;;2.43;1.40;;;;;;;;;;5073838;28;20166;-62
2022/05/29 11:08:31;;;;;;;3.13;1.60;;;;;;;;;;5073575;28;20685;-63
2022/05/29 11:11:06;;;;;;;3.10;1.30;;;;;;;;;;5073444;28;20201;-59
2022/05/29 11:14:07;;;;;;;2.67;1.50;;;;;;;;;;5055455;28;20618;-62
2022/05/29 11:16:39;;;;;;;1.33;1.20;;;;;;;;;;4972604;28;20259;-62
2022/05/29 11:19:11;;;;;;;4.90;1.47;;;;;;;;;;5057577;28;20190;-62
2022/05/29 11:21:46;;;;;;;1.40;1.30;;;;;;;;;;5073659;28;20177;-62
2022/05/29 11:24:15;;;;;;;3.53;1.23;;;;;;;;;;5073610;28;20173;-62
2022/05/29 11:27:02;;;;;;;1.40;1.30;;;;;;;;;;5073326;28;20194;-62
2022/05/29 11:29:46;;;;;;;2.20;1.20;;;;;;;;;;5059480;28;20221;-62
2022/05/29 11:32:22;;;;;;;2.93;1.30;;;;;;;;;;5073329;28;20227;-62
2022/05/29 11:35:07;;;;;;;1.30;1.20;;;;;;;;;;5055307;28;20173;-63
2022/05/29 11:37:43;;;;;;;3.33;1.43;;;;;;;;;;5055138;28;20194;-61
2022/05/29 11:40:12;;;;;;;1.70;1.60;;;;;;;;;;5073263;28;20249;-62
2022/05/29 11:42:46;;;;;;;2.20;1.67;;;;;;;;;;5055658;28;20186;-63
2022/05/29 11:45:16;;;;;;;4.20;1.70;;;;;;;;;;5073882;28;20158;-62
2022/05/29 11:53:28;;;;;;;2.23;1.67;;;;;;;;;;5073304;28;20253;-61
2022/05/29 11:55:57;;;;;;;2.90;1.70;;;;;;;;;;5054911;28;20217;-62
2022/05/29 11:58:42;;;;;;;2.77;1.60;;;;;;;;;;5055070;28;20188;-62
2022/05/29 12:01:11;;;;;;;2.53;2.00;;;;;;;;;;5054983;28;20181;-63
2022/05/29 12:03:43;;;;;;;1.83;1.40;;;;;;;;;;5072970;28;20214;-61
2022/05/29 12:06:15;;;;;;;1.73;1.30;;;;;;;;;;5072749;28;20200;-61
2022/05/29 12:08:58;;;;;;;1.40;1.30;;;;;;;;;;5072955;28;20173;-64
2022/05/29 12:11:29;;;;;;;2.70;1.50;;;;;;;;;;5073240;28;20650;-62
2022/05/29 12:13:59;;;;;;;1.90;1.27;;;;;;;;;;5076800;28;20174;-62
2022/05/29 12:16:29;;;;;;;2.80;1.40;;;;;;;;;;5076353;28;20228;-61
2022/05/29 12:18:56;;;;;;;2.57;1.30;;;;;;;;;;5076382;28;20178;-61
2022/05/29 12:21:28;;;;;;;1.90;1.40;;;;;;;;;;5076192;28;20186;-62
2022/05/29 12:23:54;;;;;;;2.17;1.37;;;;;;;;;;5076218;28;20263;-62
2022/05/29 12:26:28;;;;;;;2.37;1.60;;;;;;;;;;5076161;28;20288;-62
2022/05/29 12:29:02;;;;;;;3.67;1.40;;;;;;;;;;5076017;28;20203;-62
2022/05/29 12:31:40;;;;;;;3.13;1.30;;;;;;;;;;5076241;28;20181;-62
2022/05/29 12:34:06;;;;;;;3.33;1.50;;;;;;;;;;5075902;28;20252;-62
2022/05/29 12:36:35;;;;;;;3.27;1.93;;;;;;;;;;5075893;28;20193;-62
2022/05/29 12:39:01;;;;;;;2.07;1.67;;;;;;;;;;5075897;28;20642;-62
2022/05/29 12:41:33;;;;;;;4.03;1.60;;;;;;;;;;5075956;28;20200;-62
2022/05/29 12:43:58;;;;;;;3.63;1.83;;;;;;;;;;5076019;28;20295;-62
2022/05/29 12:46:41;;;;;;;2.50;1.40;;;;;;;;;;5075905;28;20273;-62
2022/05/29 12:49:28;;;;;;;1.83;1.40;;;;;;;;;;5075987;28;20162;-63
2022/05/29 12:51:57;;;;;;;5.40;1.63;;;;;;;;;;5057713;28;20205;-62
2022/05/29 12:54:35;;;;;;;3.37;1.50;;;;;;;;;;5075918;28;20583;-62
2022/05/29 12:57:13;;;;;;;3.13;2.03;;;;;;;;;;5075943;28;20282;-63
2022/05/29 13:00:02;;;;;;;3.77;1.50;;;;;;;;;;5075466;28;20178;-62
2022/05/29 13:02:31;;;;;;;6.03;1.73;;;;;;;;;;5038168;28;20559;-62
2022/05/29 13:05:00;;;;;;;4.67;1.40;;;;;;;;;;5057257;28;20189;-62
2022/05/29 13:07:26;;;;;;;2.83;1.70;;;;;;;;;;5075293;28;20197;-61
2022/05/29 13:10:05;;;;;;;5.90;1.77;;;;;;;;;;5075422;28;20258;-62
2022/05/29 13:12:35;;;;;;;2.87;1.30;;;;;;;;;;5075221;28;20173;-62
2022/05/29 13:15:04;;;;;;;2.90;1.30;;;;;;;;;;5075066;28;20185;-60
2022/05/29 13:17:31;;;;;;;2.13;1.27;;;;;;;;;;5075028;28;20334;-59
2022/05/29 13:19:57;;;;;;;1.27;1.10;;;;;;;;;;5075032;28;20182;-62
2022/05/29 13:22:42;;;;;;;1.93;1.43;;;;;;;;;;5074844;28;20194;-62
2022/05/29 13:25:08;;;;;;;2.70;1.00;;;;;;;;;;5074917;28;20660;-63
2022/05/29 13:27:34;;;;;;;1.27;1.07;;;;;;;;;;5057073;28;20201;-62
2022/05/29 13:30:01;;;;;;;1.27;1.17;;;;;;;;;;5057181;28;20197;-61
2022/05/29 13:32:29;;;;;;;1.30;1.10;;;;;;;;;;5057186;28;20661;-62
2022/05/29 13:35:04;;;;;;;2.20;1.23;;;;;;;;;;5056891;28;20227;-62
2022/05/29 13:37:33;;;;;;;2.07;0.97;;;;;;;;;;5056809;28;20193;-62
2022/05/29 13:40:06;;;;;;;1.10;1.00;;;;;;;;;;5074671;28;20212;-62
2022/05/29 13:42:48;;;;;;;3.43;1.07;;;;;;;;;;5057062;28;20604;-62
2022/05/29 13:45:23;;;;;;;1.00;1.00;;;;;;;;;;5056689;28;20189;-62
2022/05/29 13:47:52;;;;;;;1.20;1.10;;;;;;;;;;5074314;28;20288;-62
2022/05/29 13:50:23;;;;;;;4.63;1.53;;;;;;;;;;5074329;28;20202;-63
2022/05/29 13:52:57;;;;;;;1.43;1.30;;;;;;;;;;5056344;28;20620;-62
2022/05/29 13:55:43;;;;;;;2.47;1.50;;;;;;;;;;5074432;28;20177;-62
2022/05/29 14:03:58;;;;;;;3.17;1.60;;;;;;;;;;5043020;28;20609;-62
2022/05/29 14:06:25;;;;;;;4.67;1.83;;;;;;;;;;5056212;28;20632;-62
2022/05/29 14:09:02;;;;;;;2.87;1.70;;;;;;;;;;5074991;28;20689;-62
2022/05/29 14:11:49;;;;;;;4.67;1.60;;;;;;;;;;5056119;28;20661;-63
2022/05/29 14:14:30;;;;;;;5.83;2.17;;;;;;;;;;5042504;28;20564;-62
2022/05/29 14:17:15;;;;;;;4.47;1.80;;;;;;;;;;5055955;28;20655;-62
2022/05/29 14:19:50;;;;;;;2.10;1.47;;;;;;;;;;5056144;28;20181;-61
2022/05/29 14:22:45;;;;;;;1.90;1.70;;;;;;;;;;5074008;28;20165;-61
2022/05/29 14:25:30;;;;;;;1.53;1.40;;;;;;;;;;5055900;28;20193;-62
2022/05/29 14:28:18;;;;;;;2.27;1.40;;;;;;;;;;5055838;28;20246;-62
2022/05/29 14:30:50;;;;;;;1.30;1.20;;;;;;;;;;5055842;28;20557;-61
2022/05/29 14:33:29;;;;;;;1.57;1.30;;;;;;;;;;5055545;28;20169;-59
2022/05/29 14:36:14;;;;;;;2.37;1.47;;;;;;;;;;5073299;28;20193;-61
2022/05/29 14:38:49;;;;;;;3.33;1.40;;;;;;;;;;5073718;28;20666;-61
2022/05/29 14:41:18;;;;;;;1.80;1.40;;;;;;;;;;5073726;28;20263;-61
2022/05/29 14:43:44;;;;;;;3.13;1.40;;;;;;;;;;5074063;28;20623;-61
2022/05/29 14:46:41;;;;;;;2.53;1.53;;;;;;;;;;5056182;28;20207;-61
2022/05/29 14:49:13;;;;;;;1.50;1.40;;;;;;;;;;5073864;28;20166;-61
2022/05/29 14:51:43;;;;;;;6.40;3.50;;;;;;;;;;5073628;28;20174;-60
2022/05/29 14:54:29;;;;;;;3.10;2.00;;;;;;;;;;5073717;28;20188;-62
2022/05/29 14:56:57;;;;;;;3.20;2.40;;;;;;;;;;5041811;28;20225;-62
2022/05/29 14:59:29;;;;;;;3.70;2.23;;;;;;;;;;5055474;28;20206;-62
2022/05/29 15:01:56;;;;;;;12.00;6.87;;;;;;;;;;5055444;28;20189;-62
2022/05/29 15:04:29;;;;;;;3.57;1.90;;;;;;;;;;5055282;28;20178;-61
2022/05/29 15:12:33;;;;;;;5.93;1.83;;;;;;;;;;5073693;28;20296;-62
2022/05/29 15:15:19;;;;;;;1.43;1.27;;;;;;;;;;5073553;28;20661;-62
2022/05/29 15:17:45;;;;;;;3.07;1.20;;;;;;;;;;5073313;28;20696;-62
2022/05/29 15:26:01;;;;;;;3.60;1.43;;;;;;;;;;5073401;28;20208;-59
2022/05/29 15:28:27;;;;;;;2.80;1.47;;;;;;;;;;5073227;28;20181;-62
2022/05/29 15:30:53;;;;;;;3.60;1.27;;;;;;;;;;5073263;28;20281;-62
2022/05/29 15:33:21;;;;;;;2.37;1.27;;;;;;;;;;5073324;28;20265;-62
2022/05/29 15:35:54;;;;;;;2.00;1.30;;;;;;;;;;5073158;28;20178;-62
2022/05/29 15:38:39;;;;;;;1.50;1.10;;;;;;;;;;5073362;28;20173;-61
2022/05/29 15:41:18;;;;;;;2.83;1.43;;;;;;;;;;5073123;28;20274;-62
2022/05/29 15:44:01;;;;;;;1.30;1.20;;;;;;;;;;5073094;28;20168;-62
2022/05/29 15:46:45;;;;;;;2.27;1.60;;;;;;;;;;5056778;28;20293;-62
2022/05/29 15:49:26;;;;;;;2.00;1.20;;;;;;;;;;5058790;28;20178;-63
2022/05/29 15:51:58;;;;;;;2.27;1.20;;;;;;;;;;5076855;28;20549;-61
2022/05/29 15:54:24;;;;;;;2.77;1.40;;;;;;;;;;5058874;28;20176;-61
2022/05/29 15:56:59;;;;;;;3.30;1.87;;;;;;;;;;5058582;28;20308;-61